sensor_id;sensor_type;location;lat;lon;timestamp;pressure;altitude;pressure_sealevel;temperature;humidity
73981;BME280;62348;51.412;5.436;2023-04-03T00:01:54;102809.09;;;1.98;86.71
73981;BME280;62348;51.412;5.436;2023-04-03T00:04:19;102807.09;;;2.00;87.04
73981;BME280;62348;51.412;5.436;2023-04-03T00:06:45;102805.59;;;1.98;87.08
73981;BME280;62348;51.412;5.436;2023-04-03T00:09:10;102802.25;;;1.95;87.29
73981;BME280;62348;51.412;5.436;2023-04-03T00:11:36;102815.72;;;1.94;87.08
73981;BME280;62348;51.412;5.436;2023-04-03T00:14:01;102808.69;;;1.93;87.18
73981;BME280;62348;51.412;5.436;2023-04-03T00:16:26;102811.69;;;1.90;87.17
73981;BME280;62348;51.412;5.436;2023-04-03T00:18:52;102805.50;;;1.89;87.25
73981;BME280;62348;51.412;5.436;2023-04-03T00:21:17;102812.00;;;1.87;87.29
73981;BME280;62348;51.412;5.436;2023-04-03T00:23:43;102822.00;;;1.85;86.74
73981;BME280;62348;51.412;5.436;2023-04-03T00:26:08;102824.94;;;1.82;86.96
73981;BME280;62348;51.412;5.436;2023-04-03T00:28:33;102822.28;;;1.82;87.12
73981;BME280;62348;51.412;5.436;2023-04-03T00:30:59;102824.28;;;1.80;87.62
73981;BME280;62348;51.412;5.436;2023-04-03T00:33:25;102825.44;;;1.77;87.88
73981;BME280;62348;51.412;5.436;2023-04-03T00:35:50;102822.91;;;1.75;87.33
73981;BME280;62348;51.412;5.436;2023-04-03T00:38:16;102821.06;;;1.76;87.82
73981;BME280;62348;51.412;5.436;2023-04-03T00:40:44;102823.06;;;1.74;87.71
73981;BME280;62348;51.412;5.436;2023-04-03T00:43:19;102822.22;;;1.73;87.72
73981;BME280;62348;51.412;5.436;2023-04-03T00:45:48;102823.19;;;1.72;87.84
73981;BME280;62348;51.412;5.436;2023-04-03T00:48:18;102824.66;;;1.67;87.62
73981;BME280;62348;51.412;5.436;2023-04-03T00:50:46;102821.97;;;1.67;87.86
73981;BME280;62348;51.412;5.436;2023-04-03T00:53:17;102819.66;;;1.64;87.61
73981;BME280;62348;51.412;5.436;2023-04-03T00:55:43;102823.13;;;1.64;87.93
73981;BME280;62348;51.412;5.436;2023-04-03T00:58:10;102829.78;;;1.60;87.47
73981;BME280;62348;51.412;5.436;2023-04-03T01:00:38;102825.75;;;1.56;87.70
73981;BME280;62348;51.412;5.436;2023-04-03T01:03:05;102830.94;;;1.58;87.87
73981;BME280;62348;51.412;5.436;2023-04-03T01:05:31;102830.94;;;1.58;88.00
73981;BME280;62348;51.412;5.436;2023-04-03T01:07:57;102837.38;;;1.55;87.79
73981;BME280;62348;51.412;5.436;2023-04-03T01:10:23;102834.72;;;1.55;88.24
73981;BME280;62348;51.412;5.436;2023-04-03T01:12:50;102834.03;;;1.53;87.87
73981;BME280;62348;51.412;5.436;2023-04-03T01:15:20;102831.38;;;1.53;88.02
73981;BME280;62348;51.412;5.436;2023-04-03T01:17:51;102837.72;;;1.52;87.85
73981;BME280;62348;51.412;5.436;2023-04-03T01:25:50;102834.78;;;1.45;87.91
73981;BME280;62348;51.412;5.436;2023-04-03T01:28:20;102830.59;;;1.43;88.18
73981;BME280;62348;51.412;5.436;2023-04-03T01:33:35;102822.91;;;1.40;87.79
73981;BME280;62348;51.412;5.436;2023-04-03T01:36:01;102832.88;;;1.38;87.78
73981;BME280;62348;51.412;5.436;2023-04-03T01:38:26;102830.50;;;1.34;87.73
73981;BME280;62348;51.412;5.436;2023-04-03T01:40:52;102834.03;;;1.35;87.66
73981;BME280;62348;51.412;5.436;2023-04-03T01:43:17;102835.28;;;1.31;88.19
73981;BME280;62348;51.412;5.436;2023-04-03T01:45:43;102837.00;;;1.32;88.67
73981;BME280;62348;51.412;5.436;2023-04-03T01:48:08;102838.81;;;1.31;88.19
73981;BME280;62348;51.412;5.436;2023-04-03T01:50:33;102835.63;;;1.28;88.15
73981;BME280;62348;51.412;5.436;2023-04-03T01:52:59;102832.94;;;1.28;88.27
73981;BME280;62348;51.412;5.436;2023-04-03T01:55:24;102835.75;;;1.26;88.27
73981;BME280;62348;51.412;5.436;2023-04-03T01:57:50;102827.91;;;1.25;88.16
73981;BME280;62348;51.412;5.436;2023-04-03T02:00:15;102835.22;;;1.23;88.42
73981;BME280;62348;51.412;5.436;2023-04-03T02:02:41;102833.00;;;1.18;88.21
73981;BME280;62348;51.412;5.436;2023-04-03T02:05:07;102838.34;;;1.18;88.58
73981;BME280;62348;51.412;5.436;2023-04-03T02:07:33;102837.47;;;1.17;88.38
73981;BME280;62348;51.412;5.436;2023-04-03T02:09:58;102832.34;;;1.16;88.63
73981;BME280;62348;51.412;5.436;2023-04-03T02:12:23;102842.31;;;1.14;88.49
73981;BME280;62348;51.412;5.436;2023-04-03T02:14:49;102836.25;;;1.12;88.30
73981;BME280;62348;51.412;5.436;2023-04-03T02:17:14;102850.72;;;1.09;88.51
73981;BME280;62348;51.412;5.436;2023-04-03T02:19:40;102848.06;;;1.09;88.31
73981;BME280;62348;51.412;5.436;2023-04-03T02:22:05;102840.22;;;1.08;88.91
73981;BME280;62348;51.412;5.436;2023-04-03T02:24:31;102844.56;;;1.09;88.74
73981;BME280;62348;51.412;5.436;2023-04-03T02:26:58;102851.72;;;1.08;88.81
73981;BME280;62348;51.412;5.436;2023-04-03T02:29:23;102843.88;;;1.07;88.86
73981;BME280;62348;51.412;5.436;2023-04-03T02:31:50;102846.00;;;1.03;88.39
73981;BME280;62348;51.412;5.436;2023-04-03T02:34:16;102850.31;;;1.04;88.53
73981;BME280;62348;51.412;5.436;2023-04-03T02:36:41;102848.19;;;1.08;88.92
73981;BME280;62348;51.412;5.436;2023-04-03T02:39:07;102848.34;;;1.06;89.02
73981;BME280;62348;51.412;5.436;2023-04-03T02:41:33;102849.75;;;1.10;89.30
73981;BME280;62348;51.412;5.436;2023-04-03T02:44:04;102857.06;;;1.08;88.95
73981;BME280;62348;51.412;5.436;2023-04-03T02:46:31;102849.06;;;1.08;89.63
73981;BME280;62348;51.412;5.436;2023-04-03T02:48:56;102854.22;;;1.10;89.44
73981;BME280;62348;51.412;5.436;2023-04-03T02:51:22;102851.56;;;1.10;89.65
73981;BME280;62348;51.412;5.436;2023-04-03T02:53:51;102856.59;;;1.13;89.96
73981;BME280;62348;51.412;5.436;2023-04-03T02:56:17;102858.44;;;1.12;89.83
73981;BME280;62348;51.412;5.436;2023-04-03T02:58:44;102864.13;;;1.17;90.19
73981;BME280;62348;51.412;5.436;2023-04-03T03:01:10;102863.03;;;1.20;90.35
73981;BME280;62348;51.412;5.436;2023-04-03T03:03:35;102858.53;;;1.21;90.02
73981;BME280;62348;51.412;5.436;2023-04-03T03:06:15;102861.03;;;1.22;89.66
73981;BME280;62348;51.412;5.436;2023-04-03T03:08:42;102859.06;;;1.24;90.06
73981;BME280;62348;51.412;5.436;2023-04-03T03:11:08;102863.41;;;1.25;89.86
73981;BME280;62348;51.412;5.436;2023-04-03T03:13:34;102860.91;;;1.24;89.81
73981;BME280;62348;51.412;5.436;2023-04-03T03:15:59;102863.41;;;1.25;89.76
73981;BME280;62348;51.412;5.436;2023-04-03T03:18:25;102856.09;;;1.27;89.90
73981;BME280;62348;51.412;5.436;2023-04-03T03:20:56;102855.25;;;1.27;89.80
73981;BME280;62348;51.412;5.436;2023-04-03T03:23:23;102856.41;;;1.24;89.62
73981;BME280;62348;51.412;5.436;2023-04-03T03:26:01;102855.41;;;1.25;89.74
73981;BME280;62348;51.412;5.436;2023-04-03T03:28:28;102855.72;;;1.22;89.59
73981;BME280;62348;51.412;5.436;2023-04-03T03:30:54;102852.91;;;1.24;89.65
73981;BME280;62348;51.412;5.436;2023-04-03T03:33:19;102859.53;;;1.20;89.65
73981;BME280;62348;51.412;5.436;2023-04-03T03:35:45;102867.19;;;1.23;89.72
73981;BME280;62348;51.412;5.436;2023-04-03T03:38:10;102865.81;;;1.19;89.71
73981;BME280;62348;51.412;5.436;2023-04-03T03:40:36;102865.81;;;1.19;89.58
73981;BME280;62348;51.412;5.436;2023-04-03T03:43:02;102871.97;;;1.19;89.77
73981;BME280;62348;51.412;5.436;2023-04-03T03:45:27;102865.00;;;1.18;89.64
73981;BME280;62348;51.412;5.436;2023-04-03T03:47:52;102869.31;;;1.19;89.68
73981;BME280;62348;51.412;5.436;2023-04-03T03:50:18;102879.97;;;1.19;89.38
73981;BME280;62348;51.412;5.436;2023-04-03T03:52:43;102876.34;;;1.20;89.44
73981;BME280;62348;51.412;5.436;2023-04-03T03:55:09;102881.13;;;1.16;89.79
73981;BME280;62348;51.412;5.436;2023-04-03T03:57:35;102885.78;;;1.14;89.54
73981;BME280;62348;51.412;5.436;2023-04-03T04:00:01;102884.94;;;1.14;89.29
73981;BME280;62348;51.412;5.436;2023-04-03T04:02:26;102885.22;;;1.11;89.33
73981;BME280;62348;51.412;5.436;2023-04-03T04:04:51;102879.06;;;1.10;89.32
73981;BME280;62348;51.412;5.436;2023-04-03T04:07:17;102886.38;;;1.08;89.46
73981;BME280;62348;51.412;5.436;2023-04-03T04:09:42;102887.34;;;1.07;89.02
73981;BME280;62348;51.412;5.436;2023-04-03T04:12:07;102876.81;;;1.06;89.10
73981;BME280;62348;51.412;5.436;2023-04-03T04:14:33;102877.13;;;1.03;89.14
73981;BME280;62348;51.412;5.436;2023-04-03T04:16:58;102879.94;;;1.01;89.44
73981;BME280;62348;51.412;5.436;2023-04-03T04:19:24;102882.59;;;1.01;88.99
73981;BME280;62348;51.412;5.436;2023-04-03T04:21:49;102879.94;;;1.01;89.58
73981;BME280;62348;51.412;5.436;2023-04-03T04:24:15;102881.78;;;1.01;89.30
73981;BME280;62348;51.412;5.436;2023-04-03T04:26:40;102885.56;;;0.98;88.90
73981;BME280;62348;51.412;5.436;2023-04-03T04:29:06;102880.38;;;0.96;88.98
73981;BME280;62348;51.412;5.436;2023-04-03T04:31:31;102881.38;;;0.95;89.32
73981;BME280;62348;51.412;5.436;2023-04-03T04:33:56;102881.50;;;0.94;89.03
73981;BME280;62348;51.412;5.436;2023-04-03T04:36:22;102885.00;;;0.94;89.25
73981;BME280;62348;51.412;5.436;2023-04-03T04:38:47;102887.66;;;0.94;88.80
73981;BME280;62348;51.412;5.436;2023-04-03T04:41:13;102885.00;;;0.94;89.03
73981;BME280;62348;51.412;5.436;2023-04-03T04:43:38;102888.53;;;0.95;88.57
73981;BME280;62348;51.412;5.436;2023-04-03T04:46:09;102887.66;;;0.94;88.87
73981;BME280;62348;51.412;5.436;2023-04-03T04:48:36;102890.66;;;0.91;88.47
73981;BME280;62348;51.412;5.436;2023-04-03T04:51:02;102898.63;;;0.91;88.69
73981;BME280;62348;51.412;5.436;2023-04-03T04:53:27;102894.97;;;0.92;88.94
73981;BME280;62348;51.412;5.436;2023-04-03T04:55:53;102898.63;;;0.91;89.03
73981;BME280;62348;51.412;5.436;2023-04-03T04:58:18;102907.47;;;0.92;88.84
73981;BME280;62348;51.412;5.436;2023-04-03T05:00:44;102897.78;;;0.91;88.60
73981;BME280;62348;51.412;5.436;2023-04-03T05:03:10;102907.47;;;0.92;88.08
73981;BME280;62348;51.412;5.436;2023-04-03T05:05:35;102908.16;;;0.94;88.46
73981;BME280;62348;51.412;5.436;2023-04-03T05:08:01;102908.16;;;0.94;88.34
73981;BME280;62348;51.412;5.436;2023-04-03T05:10:27;102910.94;;;0.92;88.22
73981;BME280;62348;51.412;5.436;2023-04-03T05:12:53;102908.16;;;0.94;88.17
73981;BME280;62348;51.412;5.436;2023-04-03T05:15:18;102901.84;;;0.95;88.29
73981;BME280;62348;51.412;5.436;2023-04-03T05:17:44;102904.50;;;0.95;87.96
73981;BME280;62348;51.412;5.436;2023-04-03T05:20:10;102912.50;;;0.95;88.30
73981;BME280;62348;51.412;5.436;2023-04-03T05:22:35;102919.63;;;0.94;87.78
73981;BME280;62348;51.412;5.436;2023-04-03T05:25:01;102920.50;;;0.95;88.29
73981;BME280;62348;51.412;5.436;2023-04-03T05:27:26;102926.66;;;0.95;87.90
73981;BME280;62348;51.412;5.436;2023-04-03T05:29:54;102930.00;;;0.97;87.92
73981;BME280;62348;51.412;5.436;2023-04-03T05:32:19;102927.47;;;0.96;87.96
73981;BME280;62348;51.412;5.436;2023-04-03T05:34:45;102934.66;;;0.95;88.27
73981;BME280;62348;51.412;5.436;2023-04-03T05:37:11;102932.69;;;0.97;87.94
73981;BME280;62348;51.412;5.436;2023-04-03T05:39:36;102932.69;;;0.97;87.89
73981;BME280;62348;51.412;5.436;2023-04-03T05:42:03;102936.47;;;0.95;87.73
73981;BME280;62348;51.412;5.436;2023-04-03T05:44:29;102936.31;;;0.96;87.86
73981;BME280;62348;51.412;5.436;2023-04-03T05:46:54;102934.50;;;0.97;87.79
73981;BME280;62348;51.412;5.436;2023-04-03T05:49:20;102935.63;;;0.94;87.38
73981;BME280;62348;51.412;5.436;2023-04-03T05:51:45;102943.31;;;0.97;87.40
73981;BME280;62348;51.412;5.436;2023-04-03T05:54:29;102940.22;;;1.02;87.47
73981;BME280;62348;51.412;5.436;2023-04-03T05:56:55;102939.53;;;1.00;87.15
73981;BME280;62348;51.412;5.436;2023-04-03T05:59:21;102931.66;;;0.98;87.07
73981;BME280;62348;51.412;5.436;2023-04-03T06:01:47;102938.56;;;1.01;87.39
73981;BME280;62348;51.412;5.436;2023-04-03T06:04:13;102940.22;;;1.02;87.14
73981;BME280;62348;51.412;5.436;2023-04-03T06:06:57;102944.25;;;1.06;87.04
73981;BME280;62348;51.412;5.436;2023-04-03T06:09:25;102940.06;;;1.04;86.82
73981;BME280;62348;51.412;5.436;2023-04-03T06:11:52;102936.13;;;1.08;87.38
73981;BME280;62348;51.412;5.436;2023-04-03T06:14:18;102941.88;;;1.13;87.56
73981;BME280;62348;51.412;5.436;2023-04-03T06:16:43;102939.06;;;1.14;87.35
73981;BME280;62348;51.412;5.436;2023-04-03T06:19:10;102944.50;;;1.23;87.15
73981;BME280;62348;51.412;5.436;2023-04-03T06:21:36;102946.81;;;1.35;86.84
73981;BME280;62348;51.412;5.436;2023-04-03T06:24:05;102946.16;;;1.51;86.63
73981;BME280;62348;51.412;5.436;2023-04-03T06:26:31;102958.41;;;1.72;85.62
73981;BME280;62348;51.412;5.436;2023-04-03T06:28:57;102948.44;;;1.92;85.38
73981;BME280;62348;51.412;5.436;2023-04-03T06:31:22;102957.66;;;2.15;84.91
73981;BME280;62348;51.412;5.436;2023-04-03T06:33:48;102953.16;;;2.34;82.95
73981;BME280;62348;51.412;5.436;2023-04-03T06:36:13;102964.81;;;2.51;81.22
73981;BME280;62348;51.412;5.436;2023-04-03T06:38:39;102965.63;;;2.69;81.24
73981;BME280;62348;51.412;5.436;2023-04-03T06:41:04;102961.56;;;2.91;80.58
73981;BME280;62348;51.412;5.436;2023-04-03T06:43:30;102962.91;;;3.22;80.11
73981;BME280;62348;51.412;5.436;2023-04-03T06:45:58;102961.72;;;3.59;79.30
73981;BME280;62348;51.412;5.436;2023-04-03T06:48:23;102961.78;;;3.83;75.30
73981;BME280;62348;51.412;5.436;2023-04-03T06:50:49;102961.28;;;3.96;75.72
73981;BME280;62348;51.412;5.436;2023-04-03T06:53:14;102966.16;;;4.09;76.02
73981;BME280;62348;51.412;5.436;2023-04-03T06:55:40;102967.03;;;4.26;73.64
73981;BME280;62348;51.412;5.436;2023-04-03T06:58:06;102970.72;;;4.58;72.56
73981;BME280;62348;51.412;5.436;2023-04-03T07:00:32;102969.94;;;5.13;71.83
73981;BME280;62348;51.412;5.436;2023-04-03T07:02:57;102977.06;;;5.77;69.83
73981;BME280;62348;51.412;5.436;2023-04-03T07:05:23;102978.19;;;6.14;67.72
73981;BME280;62348;51.412;5.436;2023-04-03T07:07:49;102974.56;;;6.44;66.86
73981;BME280;62348;51.412;5.436;2023-04-03T07:10:15;102979.47;;;6.79;65.51
73981;BME280;62348;51.412;5.436;2023-04-03T07:12:41;102984.66;;;6.80;63.63
73981;BME280;62348;51.412;5.436;2023-04-03T07:15:07;102976.91;;;6.48;64.57
73981;BME280;62348;51.412;5.436;2023-04-03T07:17:34;102980.88;;;6.14;65.29
73981;BME280;62348;51.412;5.436;2023-04-03T07:19:59;102986.69;;;5.94;66.12
73981;BME280;62348;51.412;5.436;2023-04-03T07:22:25;102981.94;;;5.73;67.22
73981;BME280;62348;51.412;5.436;2023-04-03T07:24:50;102979.28;;;5.65;67.34
73981;BME280;62348;51.412;5.436;2023-04-03T07:27:16;102986.84;;;5.61;68.37
73981;BME280;62348;51.412;5.436;2023-04-03T07:29:43;102984.34;;;5.60;68.18
73981;BME280;62348;51.412;5.436;2023-04-03T07:32:09;102986.19;;;5.59;68.06
73981;BME280;62348;51.412;5.436;2023-04-03T07:34:35;102987.03;;;5.60;67.92
73981;BME280;62348;51.412;5.436;2023-04-03T07:37:00;102986.28;;;5.74;66.87
73981;BME280;62348;51.412;5.436;2023-04-03T07:39:27;102990.34;;;6.01;66.22
73981;BME280;62348;51.412;5.436;2023-04-03T07:41:53;102987.84;;;6.46;65.07
73981;BME280;62348;51.412;5.436;2023-04-03T07:44:21;102997.41;;;7.01;62.73
73981;BME280;62348;51.412;5.436;2023-04-03T07:46:47;102998.53;;;7.37;60.90
73981;BME280;62348;51.412;5.436;2023-04-03T07:49:14;102994.91;;;7.81;58.76
73981;BME280;62348;51.412;5.436;2023-04-03T07:51:39;102992.84;;;7.98;59.96
73981;BME280;62348;51.412;5.436;2023-04-03T07:54:05;102998.16;;;7.91;59.76
73981;BME280;62348;51.412;5.436;2023-04-03T07:56:30;103005.16;;;7.71;58.36
73981;BME280;62348;51.412;5.436;2023-04-03T07:58:56;103001.78;;;7.32;58.25
73981;BME280;62348;51.412;5.436;2023-04-03T08:01:22;102997.13;;;7.11;62.30
73981;BME280;62348;51.412;5.436;2023-04-03T08:03:47;103003.50;;;6.95;61.72
73981;BME280;62348;51.412;5.436;2023-04-03T08:06:13;103009.25;;;6.92;63.07
73981;BME280;62348;51.412;5.436;2023-04-03T08:08:40;103016.41;;;6.85;60.92
73981;BME280;62348;51.412;5.436;2023-04-03T08:11:06;103009.03;;;6.79;61.30
73981;BME280;62348;51.412;5.436;2023-04-03T08:13:33;103002.84;;;6.78;61.63
73981;BME280;62348;51.412;5.436;2023-04-03T08:16:08;103003.22;;;6.90;63.45
73981;BME280;62348;51.412;5.436;2023-04-03T08:18:34;103004.06;;;6.91;60.18
73981;BME280;62348;51.412;5.436;2023-04-03T08:20:59;103007.94;;;6.88;60.32
73981;BME280;62348;51.412;5.436;2023-04-03T08:23:25;103002.69;;;6.95;62.14
73981;BME280;62348;51.412;5.436;2023-04-03T08:25:51;103006.38;;;6.94;59.63
73981;BME280;62348;51.412;5.436;2023-04-03T08:28:17;103001.59;;;7.04;58.85
73981;BME280;62348;51.412;5.436;2023-04-03T08:30:42;102999.44;;;7.14;59.65
73981;BME280;62348;51.412;5.436;2023-04-03T08:33:08;103007.63;;;7.21;58.94
73981;BME280;62348;51.412;5.436;2023-04-03T08:35:40;103007.81;;;7.19;57.42
73981;BME280;62348;51.412;5.436;2023-04-03T08:38:07;103016.34;;;7.23;58.28
73981;BME280;62348;51.412;5.436;2023-04-03T08:40:32;103012.44;;;7.26;55.79
73981;BME280;62348;51.412;5.436;2023-04-03T08:43:03;103007.16;;;7.32;55.75
73981;BME280;62348;51.412;5.436;2023-04-03T08:45:48;103014.09;;;7.41;57.87
73981;BME280;62348;51.412;5.436;2023-04-03T08:48:40;103019.13;;;7.45;57.05
73981;BME280;62348;51.412;5.436;2023-04-03T08:51:20;103027.66;;;7.48;55.46
73981;BME280;62348;51.412;5.436;2023-04-03T08:56:18;103022.44;;;7.61;55.22
73981;BME280;62348;51.412;5.436;2023-04-03T08:58:48;103019.91;;;7.75;55.19
73981;BME280;62348;51.412;5.436;2023-04-03T09:01:27;103016.16;;;7.91;55.04
73981;BME280;62348;51.412;5.436;2023-04-03T09:03:55;103015.44;;;7.97;50.53
73981;BME280;62348;51.412;5.436;2023-04-03T09:06:26;103018.19;;;8.04;51.81
73981;BME280;62348;51.412;5.436;2023-04-03T09:09:30;103008.75;;;8.14;53.23
73981;BME280;62348;51.412;5.436;2023-04-03T09:12:24;103013.56;;;8.19;49.04
73981;BME280;62348;51.412;5.436;2023-04-03T09:20:39;103015.66;;;8.38;49.92
73981;BME280;62348;51.412;5.436;2023-04-03T09:25:58;103011.41;;;8.29;42.44
73981;BME280;62348;51.412;5.436;2023-04-03T09:28:26;103011.78;;;8.26;42.72
73981;BME280;62348;51.412;5.436;2023-04-03T09:30:53;103011.13;;;8.24;41.57
73981;BME280;62348;51.412;5.436;2023-04-03T09:33:19;103018.50;;;8.15;40.79
73981;BME280;62348;51.412;5.436;2023-04-03T09:35:47;103011.84;;;8.11;40.55
73981;BME280;62348;51.412;5.436;2023-04-03T09:40:42;103015.13;;;8.07;40.20
73981;BME280;62348;51.412;5.436;2023-04-03T09:45:44;103011.38;;;8.08;41.59
73981;BME280;62348;51.412;5.436;2023-04-03T09:50:52;103001.50;;;8.15;40.88
73981;BME280;62348;51.412;5.436;2023-04-03T09:53:40;102999.72;;;8.22;44.70
73981;BME280;62348;51.412;5.436;2023-04-03T09:58:42;102998.63;;;8.16;41.57
73981;BME280;62348;51.412;5.436;2023-04-03T10:01:22;102993.25;;;8.16;42.20
73981;BME280;62348;51.412;5.436;2023-04-03T10:04:22;102993.94;;;8.25;44.05
73981;BME280;62348;51.412;5.436;2023-04-03T10:06:55;102987.97;;;8.30;39.93
73981;BME280;62348;51.412;5.436;2023-04-03T10:14:34;102968.31;;;8.36;40.25
73981;BME280;62348;51.412;5.436;2023-04-03T10:22:54;102988.63;;;8.32;41.24
73981;BME280;62348;51.412;5.436;2023-04-03T10:27:53;102972.50;;;8.17;39.47
73981;BME280;62348;51.412;5.436;2023-04-03T10:30:40;102969.88;;;8.24;41.40
73981;BME280;62348;51.412;5.436;2023-04-03T10:33:36;102976.56;;;8.28;42.94
73981;BME280;62348;51.412;5.436;2023-04-03T10:41:47;102967.31;;;8.15;37.71
73981;BME280;62348;51.412;5.436;2023-04-03T10:47:25;102953.09;;;8.21;38.12
73981;BME280;62348;51.412;5.436;2023-04-03T10:50:23;102946.38;;;8.17;39.27
73981;BME280;62348;51.412;5.436;2023-04-03T10:53:04;102951.59;;;8.19;38.92
73981;BME280;62348;51.412;5.436;2023-04-03T10:55:42;102934.13;;;8.15;37.32
73981;BME280;62348;51.412;5.436;2023-04-03T10:58:27;102933.75;;;8.18;41.09
73981;BME280;62348;51.412;5.436;2023-04-03T11:00:57;102945.75;;;8.15;37.51
73981;BME280;62348;51.412;5.436;2023-04-03T11:06:02;102934.72;;;8.10;37.82
73981;BME280;62348;51.412;5.436;2023-04-03T11:08:52;102940.44;;;8.22;41.43
73981;BME280;62348;51.412;5.436;2023-04-03T11:11:24;102938.13;;;8.19;37.92
73981;BME280;62348;51.412;5.436;2023-04-03T11:14:14;102932.16;;;8.24;39.51
73981;BME280;62348;51.412;5.436;2023-04-03T11:16:46;102925.28;;;8.21;37.68
73981;BME280;62348;51.412;5.436;2023-04-03T11:21:57;102938.75;;;8.21;38.24
73981;BME280;62348;51.412;5.436;2023-04-03T11:24:29;102919.22;;;8.12;35.15
73981;BME280;62348;51.412;5.436;2023-04-03T11:26:57;102913.19;;;8.10;35.26
73981;BME280;62348;51.412;5.436;2023-04-03T11:29:29;102921.13;;;8.18;38.59
73981;BME280;62348;51.412;5.436;2023-04-03T11:34:49;102910.59;;;8.24;37.07
73981;BME280;62348;51.412;5.436;2023-04-03T11:37:39;102905.00;;;8.25;39.94
73981;BME280;62348;51.412;5.436;2023-04-03T11:42:46;102908.09;;;8.22;36.67
73981;BME280;62348;51.412;5.436;2023-04-03T11:48:00;102902.69;;;8.22;37.52
73981;BME280;62348;51.412;5.436;2023-04-03T11:53:02;102890.47;;;8.19;37.18
73981;BME280;62348;51.412;5.436;2023-04-03T11:58:24;102891.38;;;8.33;37.83
73981;BME280;62348;51.412;5.436;2023-04-03T12:00:55;102892.81;;;8.29;36.44
73981;BME280;62348;51.412;5.436;2023-04-03T12:13:40;102881.41;;;8.27;35.46
73981;BME280;62348;51.412;5.436;2023-04-03T12:29:33;102866.44;;;8.25;36.09
73981;BME280;62348;51.412;5.436;2023-04-03T12:35:20;102868.59;;;8.36;37.23
73981;BME280;62348;51.412;5.436;2023-04-03T12:44:24;102853.53;;;8.42;38.95
73981;BME280;62348;51.412;5.436;2023-04-03T12:46:52;102845.44;;;8.42;34.97
73981;BME280;62348;51.412;5.436;2023-04-03T12:49:38;102857.69;;;8.44;37.75
73981;BME280;62348;51.412;5.436;2023-04-03T12:52:13;102843.19;;;8.45;35.66
73981;BME280;62348;51.412;5.436;2023-04-03T12:54:42;102842.56;;;8.43;34.45
73981;BME280;62348;51.412;5.436;2023-04-03T12:57:24;102841.72;;;8.43;37.73
73981;BME280;62348;51.412;5.436;2023-04-03T12:59:50;102834.38;;;8.36;34.61
73981;BME280;62348;51.412;5.436;2023-04-03T13:02:28;102827.34;;;8.35;36.36
73981;BME280;62348;51.412;5.436;2023-04-03T13:04:56;102832.91;;;8.34;34.70
73981;BME280;62348;51.412;5.436;2023-04-03T13:07:34;102834.00;;;8.39;37.04
73981;BME280;62348;51.412;5.436;2023-04-03T13:10:14;102823.22;;;8.39;36.70
73981;BME280;62348;51.412;5.436;2023-04-03T13:12:55;102815.72;;;8.35;37.61
73981;BME280;62348;51.412;5.436;2023-04-03T13:15:41;102823.59;;;8.36;38.02
73981;BME280;62348;51.412;5.436;2023-04-03T13:18:28;102808.22;;;8.30;37.87
73981;BME280;62348;51.412;5.436;2023-04-03T13:20:58;102812.19;;;8.34;37.73
73981;BME280;62348;51.412;5.436;2023-04-03T13:23:26;102823.50;;;8.45;39.42
73981;BME280;62348;51.412;5.436;2023-04-03T13:25:51;102811.47;;;8.47;42.89
73981;BME280;62348;51.412;5.436;2023-04-03T13:28:22;102810.44;;;8.48;39.82
73981;BME280;62348;51.412;5.436;2023-04-03T13:33:26;102800.69;;;8.47;37.63
73981;BME280;62348;51.412;5.436;2023-04-03T13:36:16;102814.16;;;8.47;38.74
73981;BME280;62348;51.412;5.436;2023-04-03T13:38:43;102805.38;;;8.38;36.22
73981;BME280;62348;51.412;5.436;2023-04-03T13:41:43;102808.53;;;8.42;38.37
73981;BME280;62348;51.412;5.436;2023-04-03T13:44:35;102797.69;;;8.35;38.50
73981;BME280;62348;51.412;5.436;2023-04-03T13:49:42;102799.78;;;8.40;38.50
73981;BME280;62348;51.412;5.436;2023-04-03T13:54:48;102805.31;;;8.32;38.27
73981;BME280;62348;51.412;5.436;2023-04-03T13:57:17;102795.16;;;8.27;38.88
73981;BME280;62348;51.412;5.436;2023-04-03T13:59:43;102791.41;;;8.28;39.30
73981;BME280;62348;51.412;5.436;2023-04-03T14:07:02;102787.91;;;8.34;38.29
73981;BME280;62348;51.412;5.436;2023-04-03T14:09:28;102786.06;;;8.35;41.42
73981;BME280;62348;51.412;5.436;2023-04-03T14:11:56;102784.22;;;8.35;40.03
73981;BME280;62348;51.412;5.436;2023-04-03T14:14:27;102784.22;;;8.35;40.14
73981;BME280;62348;51.412;5.436;2023-04-03T14:16:55;102784.41;;;8.34;38.04
73981;BME280;62348;51.412;5.436;2023-04-03T14:19:30;102784.78;;;8.31;40.86
73981;BME280;62348;51.412;5.436;2023-04-03T14:21:57;102782.53;;;8.34;41.08
73981;BME280;62348;51.412;5.436;2023-04-03T14:24:26;102777.56;;;8.38;41.99
73981;BME280;62348;51.412;5.436;2023-04-03T14:26:53;102784.66;;;8.39;41.00
73981;BME280;62348;51.412;5.436;2023-04-03T14:29:20;102770.53;;;8.37;40.72
73981;BME280;62348;51.412;5.436;2023-04-03T14:31:47;102776.75;;;8.37;41.69
73981;BME280;62348;51.412;5.436;2023-04-03T14:34:15;102762.25;;;8.38;42.03
73981;BME280;62348;51.412;5.436;2023-04-03T14:36:43;102772.00;;;8.39;40.97
73981;BME280;62348;51.412;5.436;2023-04-03T14:39:18;102775.34;;;8.42;40.50
73981;BME280;62348;51.412;5.436;2023-04-03T14:41:44;102776.75;;;8.37;39.69
73981;BME280;62348;51.412;5.436;2023-04-03T14:44:10;102781.13;;;8.38;40.85
73981;BME280;62348;51.412;5.436;2023-04-03T14:46:38;102779.63;;;8.36;41.16
73981;BME280;62348;51.412;5.436;2023-04-03T14:49:25;102770.72;;;8.35;40.58
73981;BME280;62348;51.412;5.436;2023-04-03T14:51:51;102766.56;;;8.33;39.86
73981;BME280;62348;51.412;5.436;2023-04-03T14:54:20;102777.78;;;8.36;41.58
73981;BME280;62348;51.412;5.436;2023-04-03T14:56:51;102781.31;;;8.37;40.72
73981;BME280;62348;51.412;5.436;2023-04-03T14:59:16;102776.75;;;8.37;40.64
73981;BME280;62348;51.412;5.436;2023-04-03T15:01:42;102773.03;;;8.38;40.35
73981;BME280;62348;51.412;5.436;2023-04-03T15:04:16;102763.47;;;8.36;41.16
73981;BME280;62348;51.412;5.436;2023-04-03T15:06:42;102760.75;;;8.29;40.00